createdAt,value
2019-05-16T00:00:49.638Z,90.50
2019-05-16T00:03:10.790Z,90.50
2019-05-16T00:05:32.369Z,90.50
2019-05-16T00:07:53.906Z,90.30
2019-05-16T00:10:15.345Z,90.40
2019-05-16T00:12:39.560Z,90.40
2019-05-16T00:14:59.945Z,90.40
2019-05-16T00:17:21.263Z,90.40
2019-05-16T00:19:42.753Z,90.40
2019-05-16T00:22:04.228Z,90.60
2019-05-16T00:24:25.762Z,90.60
2019-05-16T00:26:47.998Z,90.50
2019-05-16T00:29:09.433Z,90.20
2019-05-16T00:31:30.853Z,90.20
2019-05-16T00:33:52.243Z,90.00
2019-05-16T00:36:13.826Z,90.20
2019-05-16T00:38:35.142Z,90.30
2019-05-16T00:40:58.894Z,90.50
2019-05-16T00:43:19.914Z,90.50
2019-05-16T00:45:41.339Z,90.60
2019-05-16T00:48:02.736Z,90.50
2019-05-16T00:50:24.327Z,90.50
2019-05-16T00:52:45.753Z,90.50
2019-05-16T00:55:08.398Z,90.60
2019-05-16T00:57:30.205Z,90.40
2019-05-16T00:59:51.890Z,90.60
2019-05-16T01:02:13.400Z,90.80
2019-05-16T01:04:34.796Z,90.70
2019-05-16T01:06:58.969Z,90.60
2019-05-16T01:09:19.501Z,90.50
2019-05-16T01:11:40.996Z,90.40
2019-05-16T01:14:03.126Z,90.50
2019-05-16T01:16:24.618Z,90.50
2019-05-16T01:18:48.401Z,90.50
2019-05-16T01:21:09.116Z,90.50
2019-05-16T01:23:30.407Z,90.50
2019-05-16T01:25:52.009Z,90.40
2019-05-16T01:28:13.414Z,90.40
2019-05-16T01:30:34.899Z,90.50
2019-05-16T01:32:58.274Z,90.50
2019-05-16T01:35:27.757Z,90.50
2019-05-16T01:37:48.924Z,90.40
2019-05-16T01:40:10.469Z,90.50
2019-05-16T01:42:31.977Z,90.50
2019-05-16T01:44:53.471Z,90.60
2019-05-16T01:47:15.053Z,90.60
2019-05-16T01:49:38.093Z,90.60
2019-05-16T01:51:59.792Z,90.60
2019-05-16T01:54:21.278Z,90.50
2019-05-16T01:56:42.806Z,90.40
2019-05-16T01:59:04.100Z,90.50
2019-05-16T02:01:25.512Z,90.40
2019-05-16T02:03:48.163Z,90.50
2019-05-16T02:06:10.189Z,90.50
2019-05-16T02:08:31.898Z,90.40
2019-05-16T02:10:53.694Z,90.60
2019-05-16T02:13:15.182Z,90.60
2019-05-16T02:15:38.412Z,90.50
2019-05-16T02:18:00.434Z,90.60
2019-05-16T02:20:21.922Z,90.60
2019-05-16T02:22:43.301Z,90.70
2019-05-16T02:25:05.198Z,90.70
2019-05-16T02:27:28.560Z,90.80
2019-05-16T02:29:50.689Z,90.50
2019-05-16T02:32:11.976Z,90.70
2019-05-16T02:34:33.271Z,90.50
2019-05-16T02:37:14.536Z,90.50
2019-05-16T02:39:21.139Z,90.50
2019-05-16T02:41:45.605Z,90.60
2019-05-16T02:44:05.059Z,90.50
2019-05-16T02:46:26.583Z,90.50
2019-05-16T02:48:51.547Z,90.60
2019-05-16T02:51:11.354Z,90.70
2019-05-16T02:53:33.094Z,90.80
2019-05-16T02:55:54.368Z,90.90
2019-05-16T02:58:15.953Z,90.70
2019-05-16T03:00:41.906Z,90.60
2019-05-16T03:03:02.728Z,90.70
2019-05-16T03:05:23.997Z,90.60
2019-05-16T03:07:47.356Z,90.60
2019-05-16T03:10:10.936Z,90.60
2019-05-16T03:12:31.820Z,90.40
2019-05-16T03:14:54.488Z,90.60
2019-05-16T03:17:21.202Z,90.50
2019-05-16T03:19:41.754Z,90.40
2019-05-16T03:22:03.926Z,90.50
2019-05-16T03:24:25.239Z,90.50
2019-05-16T03:26:46.625Z,90.50
2019-05-16T03:29:11.065Z,90.40
2019-05-16T03:31:33.989Z,90.30
2019-05-16T03:33:59.207Z,90.50
2019-05-16T03:36:17.804Z,90.60
2019-05-16T03:38:41.487Z,90.60
2019-05-16T03:41:03.484Z,90.50
2019-05-16T03:43:24.864Z,90.40
2019-05-16T03:45:46.188Z,90.30
2019-05-16T03:48:07.767Z,90.10
2019-05-16T03:50:30.693Z,90.00
2019-05-16T03:52:52.622Z,90.50
2019-05-16T03:55:14.006Z,90.20
2019-05-16T03:57:35.500Z,90.40
2019-05-16T03:59:56.906Z,90.30
2019-05-16T04:02:21.354Z,90.30
2019-05-16T04:04:41.909Z,90.20
2019-05-16T04:07:03.682Z,90.10
2019-05-16T04:09:25.278Z,90.10
2019-05-16T04:11:46.681Z,89.80
2019-05-16T04:14:10.735Z,89.20
2019-05-16T04:16:31.629Z,89.60
2019-05-16T04:18:53.272Z,89.50
2019-05-16T04:21:17.617Z,89.10
2019-05-16T04:23:38.054Z,89.60
2019-05-16T04:26:00.677Z,89.10
2019-05-16T04:28:22.825Z,89.00
2019-05-16T04:30:44.568Z,88.10
2019-05-16T04:33:06.518Z,88.30
2019-05-16T04:35:28.054Z,88.30
2019-05-16T04:37:51.351Z,87.90
2019-05-16T04:40:12.977Z,87.20
2019-05-16T04:42:34.410Z,87.40
2019-05-16T04:44:55.902Z,87.00
2019-05-16T04:47:37.045Z,86.50
2019-05-16T04:50:01.685Z,86.60
2019-05-16T04:52:21.980Z,86.30
2019-05-16T04:54:43.863Z,86.10
2019-05-16T04:57:05.440Z,86.00
2019-05-16T04:59:31.191Z,85.80
2019-05-16T05:01:51.856Z,85.40
2019-05-16T05:04:15.371Z,85.00
2019-05-16T05:06:36.563Z,85.40
2019-05-16T05:09:02.861Z,84.10
2019-05-16T05:11:21.767Z,84.40
2019-05-16T05:13:44.585Z,84.00
2019-05-16T05:16:06.897Z,83.20
2019-05-16T05:18:30.300Z,82.80
2019-05-16T05:20:52.729Z,82.50
2019-05-16T05:23:14.622Z,81.60
2019-05-16T05:25:36.202Z,82.10
2019-05-16T05:27:57.492Z,81.00
2019-05-16T05:30:19.771Z,81.20
2019-05-16T05:32:41.582Z,80.80
2019-05-16T05:35:05.720Z,78.90
2019-05-16T05:37:29.348Z,79.40
2019-05-16T05:39:50.538Z,78.90
2019-05-16T05:42:12.020Z,79.00
2019-05-16T05:44:33.438Z,77.00
2019-05-16T05:46:54.922Z,77.80
2019-05-16T05:49:16.211Z,77.70
2019-05-16T05:51:37.738Z,76.20
2019-05-16T05:54:00.148Z,77.50
2019-05-16T05:56:21.662Z,76.50
2019-05-16T05:58:43.191Z,76.30
2019-05-16T06:01:07.634Z,75.70
2019-05-16T06:03:32.400Z,73.70
2019-05-16T06:05:52.140Z,74.50
2019-05-16T06:08:13.691Z,75.70
2019-05-16T06:10:35.066Z,75.70
2019-05-16T06:12:56.378Z,76.10
2019-05-16T06:15:20.097Z,74.90
2019-05-16T06:17:40.893Z,75.90
2019-05-16T06:20:02.597Z,74.80
2019-05-16T06:22:24.197Z,75.60
2019-05-16T06:24:45.801Z,75.10
2019-05-16T06:27:07.322Z,76.60
2019-05-16T06:29:31.015Z,77.40
2019-05-16T06:31:52.743Z,77.50
2019-05-16T06:34:15.352Z,77.20
2019-05-16T06:36:36.943Z,77.10
2019-05-16T06:39:00.109Z,76.90
2019-05-16T06:41:21.422Z,76.70
2019-05-16T06:43:42.939Z,76.50
2019-05-16T06:46:04.239Z,75.40
2019-05-16T06:48:26.210Z,75.30
2019-05-16T06:50:47.501Z,76.20
2019-05-16T06:53:10.378Z,75.40
2019-05-16T06:55:32.137Z,76.20
2019-05-16T06:57:53.431Z,74.60
2019-05-16T07:00:14.825Z,75.20
2019-05-16T07:02:36.240Z,74.90
2019-05-16T07:04:57.857Z,75.50
2019-05-16T07:07:20.490Z,73.70
2019-05-16T07:09:57.325Z,74.30
2019-05-16T07:12:05.674Z,75.30
2019-05-16T07:14:28.997Z,75.70
2019-05-16T07:16:50.569Z,76.30
2019-05-16T07:19:11.854Z,75.90
2019-05-16T07:21:33.478Z,74.60
2019-05-16T07:23:54.805Z,74.30
2019-05-16T07:26:16.162Z,74.20
2019-05-16T07:28:37.566Z,74.30
2019-05-16T07:31:00.688Z,76.10
2019-05-16T07:33:22.480Z,76.00
2019-05-16T07:35:44.163Z,75.60
2019-05-16T07:38:05.446Z,75.60
2019-05-16T07:40:27.130Z,75.40
2019-05-16T07:42:50.910Z,76.80
2019-05-16T07:45:11.949Z,76.00
2019-05-16T07:47:33.546Z,75.30
2019-05-16T07:49:55.412Z,75.60
2019-05-16T07:52:20.627Z,75.30
2019-05-16T07:54:40.683Z,74.90
2019-05-16T07:57:15.614Z,75.10
2019-05-16T07:59:29.931Z,75.20
2019-05-16T08:01:54.137Z,74.50
2019-05-16T08:04:14.699Z,75.10
2019-05-16T08:06:36.279Z,74.40
2019-05-16T08:09:00.018Z,75.50
2019-05-16T08:11:23.693Z,75.60
2019-05-16T08:13:44.965Z,76.10
2019-05-16T08:16:06.358Z,74.60
2019-05-16T08:18:30.037Z,74.80
2019-05-16T08:20:53.967Z,75.20
2019-05-16T08:23:15.466Z,73.10
2019-05-16T08:25:36.900Z,72.60
2019-05-16T08:28:01.105Z,71.90
2019-05-16T08:30:21.422Z,73.30
2019-05-16T08:32:42.705Z,73.20
2019-05-16T08:35:05.309Z,73.50
2019-05-16T08:37:41.793Z,73.20
2019-05-16T08:39:51.001Z,71.60
2019-05-16T08:42:13.416Z,71.50
2019-05-16T08:44:34.784Z,71.30
2019-05-16T08:49:22.072Z,70.20
2019-05-16T08:51:42.953Z,72.00
2019-05-16T08:54:04.452Z,71.20
2019-05-16T08:56:25.780Z,71.60
2019-05-16T08:58:47.419Z,71.50
2019-05-16T09:01:14.375Z,72.30
2019-05-16T09:03:32.694Z,71.80
2019-05-16T09:05:54.696Z,70.30
2019-05-16T09:08:17.218Z,69.80
2019-05-16T09:10:41.403Z,71.10
2019-05-16T09:10:59.657Z,70.00
2019-05-16T09:13:02.058Z,68.90
2019-05-16T09:15:23.440Z,69.10
2019-05-16T09:17:47.418Z,68.40
2019-05-16T09:20:08.765Z,67.10
2019-05-16T09:22:30.047Z,67.90
2019-05-16T09:24:57.963Z,69.20
2019-05-16T09:27:39.319Z,67.70
2019-05-16T09:30:00.746Z,67.60
2019-05-16T09:32:22.297Z,67.80
2019-05-16T09:34:43.822Z,69.10
2019-05-16T09:37:08.213Z,68.00
2019-05-16T09:39:28.634Z,66.40
2019-05-16T09:41:54.881Z,66.20
2019-05-16T09:44:13.247Z,66.30
2019-05-16T09:46:37.148Z,66.30
2019-05-16T09:49:15.898Z,65.80
2019-05-16T09:51:21.552Z,64.20
2019-05-16T09:53:42.907Z,63.00
2019-05-16T09:56:06.819Z,63.90
2019-05-16T09:58:28.245Z,64.10
2019-05-16T10:00:49.708Z,62.80
2019-05-16T10:03:11.061Z,63.00
2019-05-16T10:05:32.714Z,63.70
2019-05-16T10:07:54.097Z,65.30
2019-05-16T10:10:17.075Z,65.00
2019-05-16T10:12:38.692Z,66.50
2019-05-16T10:15:00.155Z,65.70
2019-05-16T10:17:21.415Z,66.60
2019-05-16T10:19:42.728Z,65.50
2019-05-16T10:22:03.996Z,67.60
2019-05-16T10:24:26.851Z,68.70
2019-05-16T10:26:53.536Z,66.10
2019-05-16T10:29:11.688Z,66.10
2019-05-16T10:31:45.089Z,67.00
2019-05-16T10:33:58.262Z,69.10
2019-05-16T10:36:21.509Z,69.00
2019-05-16T10:38:43.081Z,68.60
2019-05-16T10:41:04.567Z,68.50
2019-05-16T10:43:26.483Z,69.00
2019-05-16T10:45:48.414Z,69.20
2019-05-16T10:48:09.738Z,69.50
2019-05-16T10:50:31.261Z,68.00
2019-05-16T10:53:20.441Z,68.70
2019-05-16T10:55:17.732Z,68.40
2019-05-16T10:57:39.080Z,69.30
2019-05-16T11:00:08.875Z,68.60
2019-05-16T11:02:24.077Z,68.30
2019-05-16T11:04:59.262Z,68.20
2019-05-16T11:07:09.014Z,64.30
2019-05-16T11:09:30.333Z,62.90
2019-05-16T11:11:51.715Z,64.30
2019-05-16T11:14:13.319Z,65.60
2019-05-16T11:16:36.816Z,63.50
2019-05-16T11:19:13.794Z,65.10
2019-05-16T11:21:21.160Z,65.10
2019-05-16T11:23:42.893Z,66.20
2019-05-16T11:26:04.483Z,64.60
2019-05-16T11:28:25.883Z,63.80
2019-05-16T11:30:47.748Z,62.60
2019-05-16T11:33:09.608Z,62.30
2019-05-16T11:35:31.006Z,62.90
2019-05-16T11:37:52.614Z,63.90
2019-05-16T11:40:14.195Z,63.60
2019-05-16T11:42:37.746Z,63.70
2019-05-16T11:44:58.823Z,64.20
2019-05-16T11:47:20.450Z,63.60
2019-05-16T11:49:41.786Z,62.60
2019-05-16T11:52:03.335Z,62.30
2019-05-16T11:54:26.585Z,63.60
2019-05-16T11:56:48.010Z,63.20
2019-05-16T11:59:09.347Z,62.80
2019-05-16T12:01:30.756Z,63.70
2019-05-16T12:04:12.019Z,64.10
2019-05-16T12:06:33.295Z,64.10
2019-05-16T12:08:54.792Z,61.60
2019-05-16T12:11:17.877Z,60.00
2019-05-16T12:13:39.293Z,60.50
2019-05-16T12:16:00.725Z,59.20
2019-05-16T12:18:22.158Z,59.10
2019-05-16T12:20:44.184Z,59.40
2019-05-16T12:23:07.921Z,59.10
2019-05-16T12:25:28.868Z,59.80
2019-05-16T12:27:50.247Z,59.30
2019-05-16T12:30:13.667Z,58.60
2019-05-16T12:32:36.736Z,57.20
2019-05-16T12:34:58.611Z,55.70
2019-05-16T12:37:20.394Z,55.60
2019-05-16T12:39:41.679Z,56.50
2019-05-16T12:42:03.199Z,57.50
2019-05-16T12:44:26.841Z,57.80
2019-05-16T12:46:48.091Z,58.60
2019-05-16T12:49:09.491Z,58.00
2019-05-16T12:51:31.021Z,58.90
2019-05-16T12:53:52.406Z,57.80
2019-05-16T12:56:13.884Z,56.80
2019-05-16T12:58:42.087Z,56.30
2019-05-16T13:01:01.373Z,56.80
2019-05-16T13:03:22.648Z,55.80
2019-05-16T13:05:44.200Z,57.80
2019-05-16T13:08:05.582Z,58.20
2019-05-16T13:10:27.492Z,57.00
2019-05-16T13:12:48.994Z,55.60
2019-05-16T13:15:10.765Z,56.70
2019-05-16T13:17:32.242Z,57.00
2019-05-16T13:19:53.818Z,57.20
2019-05-16T13:22:16.682Z,57.10
2019-05-16T13:24:38.592Z,58.80
2019-05-16T13:27:00.242Z,57.30
2019-05-16T13:29:21.861Z,56.80
2019-05-16T13:31:43.120Z,56.80
2019-05-16T13:34:07.303Z,58.50
2019-05-16T13:36:27.652Z,58.90
2019-05-16T13:38:49.274Z,58.90
2019-05-16T13:41:10.807Z,59.00
2019-05-16T13:43:32.227Z,59.00
2019-05-16T13:45:53.625Z,58.10
2019-05-16T13:48:17.131Z,57.00
2019-05-16T13:50:39.912Z,57.90
2019-05-16T13:53:01.244Z,57.30
2019-05-16T13:55:22.881Z,57.10
2019-05-16T13:57:44.278Z,57.90
2019-05-16T14:00:07.597Z,57.90
2019-05-16T14:02:28.755Z,58.10
2019-05-16T14:04:50.352Z,58.90
2019-05-16T14:07:11.836Z,59.20
2019-05-16T14:09:33.387Z,59.60
2019-05-16T14:11:56.421Z,61.50
2019-05-16T14:14:33.144Z,59.20
2019-05-16T14:16:41.378Z,60.00
2019-05-16T14:19:02.982Z,59.90
2019-05-16T14:21:24.335Z,58.60
2019-05-16T14:23:52.856Z,58.70
2019-05-16T14:26:08.963Z,59.70
2019-05-16T14:28:30.918Z,59.00
2019-05-16T14:30:52.456Z,59.60
2019-05-16T14:33:14.248Z,59.30
2019-05-16T14:35:37.759Z,58.90
2019-05-16T14:38:00.924Z,59.20
2019-05-16T14:40:22.600Z,59.50
2019-05-16T14:42:44.224Z,60.00
2019-05-16T14:45:16.979Z,60.60
2019-05-16T14:47:38.432Z,62.70
2019-05-16T14:49:59.713Z,60.80
2019-05-16T14:52:21.134Z,59.90
2019-05-16T14:54:42.419Z,60.00
2019-05-16T14:57:03.810Z,60.40
2019-05-16T14:59:27.878Z,60.40
2019-05-16T15:01:48.551Z,60.30
2019-05-16T15:04:10.487Z,60.90
2019-05-16T15:06:32.101Z,61.90
2019-05-16T15:08:56.590Z,62.30
2019-05-16T15:11:17.961Z,60.60
2019-05-16T15:13:39.750Z,58.20
2019-05-16T15:16:01.134Z,58.30
2019-05-16T15:18:22.538Z,59.70
2019-05-16T15:20:46.682Z,60.00
2019-05-16T15:23:07.878Z,59.30
2019-05-16T15:25:29.627Z,59.20
2019-05-16T15:27:51.543Z,59.40
2019-05-16T15:30:13.144Z,59.40
2019-05-16T15:32:38.211Z,60.30
2019-05-16T15:34:57.971Z,59.50
2019-05-16T15:37:19.245Z,59.40
2019-05-16T15:39:40.530Z,59.80
2019-05-16T15:42:02.151Z,59.90
2019-05-16T15:44:27.306Z,59.70
2019-05-16T15:46:48.595Z,60.00
2019-05-16T15:49:10.518Z,59.70
2019-05-16T15:51:32.144Z,59.90
2019-05-16T15:53:53.947Z,61.10
2019-05-16T15:56:17.626Z,61.40
2019-05-16T15:58:38.668Z,59.10
2019-05-16T16:01:00.261Z,61.40
2019-05-16T16:03:21.868Z,59.80
2019-05-16T16:05:43.595Z,58.00
2019-05-16T16:08:06.908Z,59.00
2019-05-16T16:10:37.743Z,59.60
2019-05-16T16:12:59.602Z,61.00
2019-05-16T16:15:20.894Z,61.80
2019-05-16T16:17:42.454Z,62.30
2019-05-16T16:20:23.670Z,60.70
2019-05-16T16:22:46.973Z,61.90
2019-05-16T16:25:08.711Z,61.70
2019-05-16T16:27:30.103Z,61.40
2019-05-16T16:29:51.448Z,59.40
2019-05-16T16:32:13.027Z,58.90
2019-05-16T16:34:36.578Z,59.30
2019-05-16T16:36:57.842Z,60.40
2019-05-16T16:39:19.345Z,61.40
2019-05-16T16:41:40.836Z,61.50
2019-05-16T16:44:02.275Z,62.10
2019-05-16T16:46:23.876Z,62.40
2019-05-16T16:48:45.470Z,62.50
2019-05-16T16:51:07.027Z,59.50
2019-05-16T16:53:28.403Z,60.20
2019-05-16T16:55:49.883Z,59.20
2019-05-16T16:58:11.202Z,59.60
2019-05-16T17:00:32.590Z,60.70
2019-05-16T17:03:03.386Z,59.10
2019-05-16T17:05:17.485Z,59.70
2019-05-16T17:07:38.809Z,59.30
2019-05-16T17:10:00.178Z,59.90
2019-05-16T17:12:21.613Z,60.00
2019-05-16T17:14:42.891Z,59.30
2019-05-16T17:17:06.846Z,59.60
2019-05-16T17:19:27.490Z,59.60
2019-05-16T17:22:01.750Z,59.50
2019-05-16T17:24:11.978Z,58.90
2019-05-16T17:26:33.450Z,59.80
2019-05-16T17:28:57.020Z,60.10
2019-05-16T17:31:17.928Z,61.20
2019-05-16T17:33:39.623Z,61.20
2019-05-16T17:36:00.991Z,61.20
2019-05-16T17:38:22.282Z,62.90
2019-05-16T17:40:46.286Z,62.40
2019-05-16T17:43:07.715Z,62.70
2019-05-16T17:45:29.214Z,63.10
2019-05-16T17:47:50.659Z,62.70
2019-05-16T17:50:13.964Z,63.30
2019-05-16T17:52:36.961Z,63.60
2019-05-16T17:54:58.700Z,65.10
2019-05-16T17:57:20.183Z,66.90
2019-05-16T17:59:41.767Z,65.40
2019-05-16T18:02:03.156Z,66.10
2019-05-16T18:04:26.600Z,67.40
2019-05-16T18:06:47.766Z,67.90
2019-05-16T18:09:09.683Z,69.40
2019-05-16T18:11:31.469Z,69.80
2019-05-16T18:13:53.218Z,70.80
2019-05-16T18:16:14.798Z,70.90
2019-05-16T18:18:37.494Z,70.70
2019-05-16T18:21:02.191Z,71.40
2019-05-16T18:23:22.497Z,71.60
2019-05-16T18:25:50.737Z,72.30
2019-05-16T18:28:12.321Z,71.90
2019-05-16T18:30:36.371Z,72.10
2019-05-16T18:33:06.959Z,72.10
2019-05-16T18:35:28.076Z,73.70
2019-05-16T18:37:49.788Z,73.70
2019-05-16T18:40:30.970Z,74.60
2019-05-16T18:42:52.454Z,74.50
2019-05-16T18:45:33.629Z,75.60
2019-05-16T18:47:56.268Z,75.90
2019-05-16T18:50:18.340Z,76.50
2019-05-16T18:52:39.908Z,75.90
2019-05-16T18:55:01.495Z,76.50
2019-05-16T18:57:22.921Z,76.20
2019-05-16T18:59:46.242Z,77.50
2019-05-16T19:02:10.219Z,77.80
2019-05-16T19:04:30.696Z,78.30
2019-05-16T19:06:51.983Z,78.50
2019-05-16T19:09:13.494Z,79.50
2019-05-16T19:11:36.710Z,80.00
2019-05-16T19:13:59.336Z,81.00
2019-05-16T19:16:21.219Z,81.00
2019-05-16T19:18:42.614Z,80.90
2019-05-16T19:21:04.314Z,81.30
2019-05-16T19:23:26.964Z,81.20
2019-05-16T19:25:48.478Z,83.00
2019-05-16T19:28:09.857Z,83.40
2019-05-16T19:30:31.503Z,83.50
2019-05-16T19:32:52.885Z,83.50
2019-05-16T19:35:16.448Z,83.50
2019-05-16T19:37:40.640Z,83.10
2019-05-16T19:40:03.205Z,83.40
2019-05-16T19:42:26.622Z,84.10
2019-05-16T19:44:47.909Z,84.00
2019-05-16T19:47:09.402Z,84.50
2019-05-16T19:49:30.803Z,84.70
2019-05-16T19:51:52.330Z,84.50
2019-05-16T19:54:16.195Z,84.10
2019-05-16T19:56:37.626Z,84.80
2019-05-16T19:58:59.099Z,85.20
2019-05-16T20:01:20.478Z,85.00
2019-05-16T20:03:41.770Z,85.00
2019-05-16T20:06:03.513Z,83.80
2019-05-16T20:08:26.979Z,84.70
2019-05-16T20:10:55.602Z,84.00
2019-05-16T20:13:17.278Z,84.10
2019-05-16T20:15:41.524Z,84.70
2019-05-16T20:18:01.831Z,84.40
2019-05-16T20:20:23.325Z,84.10
2019-05-16T20:22:46.222Z,85.20
2019-05-16T20:25:07.706Z,85.20
2019-05-16T20:27:29.329Z,85.60
2019-05-16T20:29:52.544Z,85.30
2019-05-16T20:32:16.727Z,85.10
2019-05-16T20:34:37.387Z,85.20
2019-05-16T20:36:58.675Z,85.80
2019-05-16T20:39:19.947Z,85.90
2019-05-16T20:41:41.503Z,85.50
2019-05-16T20:44:02.879Z,86.40
2019-05-16T20:46:24.377Z,86.50
2019-05-16T20:48:45.917Z,85.90
2019-05-16T20:51:07.476Z,85.90
2019-05-16T20:53:29.013Z,86.10
2019-05-16T20:55:50.417Z,86.70
2019-05-16T20:58:11.944Z,86.30
2019-05-16T21:00:33.230Z,85.90
2019-05-16T21:02:57.343Z,85.50
2019-05-16T21:05:19.497Z,85.60
2019-05-16T21:07:41.448Z,85.50
2019-05-16T21:10:04.649Z,85.60
2019-05-16T21:12:26.594Z,85.90
2019-05-16T21:14:48.380Z,85.90
2019-05-16T21:17:09.757Z,86.70
2019-05-16T21:19:31.392Z,86.40
2019-05-16T21:21:52.790Z,86.30
2019-05-16T21:24:14.066Z,86.60
2019-05-16T21:26:36.767Z,86.50
2019-05-16T21:28:59.037Z,86.90
2019-05-16T21:31:20.625Z,87.20
2019-05-16T21:33:42.342Z,87.10
2019-05-16T21:36:04.451Z,86.60
2019-05-16T21:38:27.086Z,87.00
2019-05-16T21:40:49.443Z,86.40
2019-05-16T21:43:30.908Z,86.30
2019-05-16T21:45:52.620Z,86.20
2019-05-16T21:48:16.325Z,86.50
2019-05-16T21:50:37.307Z,86.50
2019-05-16T21:52:58.897Z,86.80
2019-05-16T21:55:21.546Z,86.90
2019-05-16T21:57:42.916Z,87.80
2019-05-16T22:00:09.125Z,87.90
2019-05-16T22:02:30.767Z,87.70
2019-05-16T22:04:52.346Z,87.90
2019-05-16T22:07:16.516Z,87.90
2019-05-16T22:09:38.315Z,88.40
2019-05-16T22:11:59.803Z,88.40
2019-05-16T22:14:24.910Z,88.60
2019-05-16T22:16:47.026Z,88.90
2019-05-16T22:19:08.397Z,89.10
2019-05-16T22:21:30.492Z,89.40
2019-05-16T22:23:51.805Z,89.60
2019-05-16T22:26:13.453Z,89.60
2019-05-16T22:28:37.395Z,90.00
2019-05-16T22:31:00.014Z,90.10
2019-05-16T22:33:21.602Z,90.00
2019-05-16T22:35:43.130Z,90.40
2019-05-16T22:38:06.499Z,90.20
2019-05-16T22:40:27.625Z,90.10
2019-05-16T22:42:49.642Z,90.00
2019-05-16T22:45:12.882Z,90.00
2019-05-16T22:47:37.322Z,90.20
2019-05-16T22:49:58.852Z,90.10
2019-05-16T22:52:20.376Z,90.30
2019-05-16T22:54:41.961Z,90.20
2019-05-16T22:57:03.920Z,90.20
2019-05-16T22:59:27.203Z,90.30
2019-05-16T23:01:49.132Z,90.40
2019-05-16T23:04:11.293Z,90.40
2019-05-16T23:06:32.931Z,90.40
2019-05-16T23:08:56.213Z,90.40
2019-05-16T23:11:17.604Z,90.40
2019-05-16T23:13:39.620Z,90.40
2019-05-16T23:16:01.202Z,90.50
2019-05-16T23:18:22.673Z,90.80
2019-05-16T23:20:44.277Z,90.70
2019-05-16T23:23:07.212Z,90.90
2019-05-16T23:25:29.653Z,90.90
2019-05-16T23:27:50.962Z,90.90
2019-05-16T23:30:13.408Z,90.90
2019-05-16T23:32:36.495Z,90.70
2019-05-16T23:34:57.982Z,90.80
2019-05-16T23:37:19.493Z,90.70
2019-05-16T23:39:41.833Z,90.80
2019-05-16T23:42:03.268Z,90.90
2019-05-16T23:44:25.638Z,90.70
2019-05-16T23:46:47.215Z,90.60
2019-05-16T23:49:10.671Z,90.70
2019-05-16T23:51:32.061Z,90.60
2019-05-16T23:53:54.367Z,90.90
2019-05-16T23:56:16.675Z,91.30
2019-05-16T23:58:39.002Z,90.90
